Tiempo atmosférico en la estación meteorológica de Ávila, Ávila (1130 m.)



Fecha
DESCASC
Temp. máxima en grados centígrados (hora)
DESCASC
Temp. mínima en grados centígrados (hora)
DESCASC
Temp. media en grados centígrados
DESCASC
Racha de viento máxima en m/sg (hora)
DESCASC
Velocidad máxima media en intervalos de 10 minutos(hora)
DESCASC
Precipitaciones diarias en mm
DESCASC
Precipitaciones de 00:00 a 06:00 en mm
DESCASC
Precipitaciones de 06:00 a 12:00 en mm
DESCASC
Precipitaciones de 12:00 a 18:00 en mm
DESCASC
Precipitaciones de 18:00 a 24:00 en mm
DESCASC
22-11-2020 14 (14:40) 0.8 (08:00) 7.4 6.39 (00:40) 3.89 (01:00) 0 0 0 0 0
21-11-2020 16.7 (15:30) 0.8 (06:30) 8.8 6.67 (20:10) 3.06 (19:20) 0 0 0 0 0
20-11-2020 12.1 (14:30) 2.1 (08:50) 7.1 6.39 (16:50) 4.17 (16:40) 0 0 0 0 0
19-11-2020 17.3 (14:10) 4.6 (00:00) 10.9 6.11 (15:30) 3.61 (16:10) 0 0 0 0 0
18-11-2020 21.5 (13:50) 5 (00:00) 13.3 3.61 (15:00) 2.22 (16:50) 0 0 0 0 0
17-11-2020 22.1 (16:10) 3.1 (00:00) 12.6 4.17 (23:50) 2.5 (23:50) 0 0 0 0 0
16-11-2020 15.6 (15:30) 6.3 (00:00) 11 6.94 (00:10) 3.89 (00:10) 0 0 0 0 0
15-11-2020 17.7 (12:20) 8.3 (00:00) 13 11.94 (14:40) 6.67 (14:50) 0 0 0 0 0
14-11-2020 13.6 (14:40) 8.3 (00:00) 11 7.22 (14:40) 4.72 (14:50) 0.2 0 0.2 0 0
13-11-2020 13 (12:10) 5.6 (00:00) 9.3 7.5 (16:00) 4.72 (15:30) 0 0 0 0 0
12-11-2020 13.6 (15:10) 6.2 (00:00) 9.9 6.11 (13:50) 3.33 (13:50) 0 0 0 0 0
11-11-2020 15 (14:40) 4 (00:00) 9.5 8.61 (09:30) 5 (11:40) 0 0 0 0 0
10-11-2020 14.6 (13:20) 4.5 (00:00) 9.6 5.56 (17:40) 3.61 (17:20) 0 0 0 0 0
09-11-2020 14.6 (12:50) 5.7 (00:00) 10.2 7.5 (00:10) 4.17 (00:10) 1 1 0 0 0
08-11-2020 13.1 (15:30) 7.2 (00:00) 10.2 12.78 (13:50) 6.11 (13:50) 0 0 0 0 0
07-11-2020 15.2 (15:10) 7.8 (00:00) 11.5 13.61 (00:30) 6.39 (00:10) 5.4 5 0.4 0 0
06-11-2020 14.6 (16:30) 9.3 (00:00) 12 17.78 (19:40) 7.78 (13:00) 8.6 0.2 0.6 0 7.8
05-11-2020 10.4 (15:00) 7.4 (00:00) 8.9 18.06 (09:40) 8.33 (09:40) 21.6 0.8 6.2 4.8 9.8
04-11-2020 7.4 (23:59) 3 (00:00) 5.2 9.72 (22:30) 5 (23:30) 11.2 0 0.2 8.2 2.8
03-11-2020 12 (03:20) 5.7 (00:00) 8.8 7.5 (06:10) 4.17 (13:00) 0.4 0 0.2 0.2 0
02-11-2020 16.3 (14:10) 9 (00:00) 12.6 3.61 (13:40) 1.94 (10:20) 0 0 0 0 0
01-11-2020 20.9 (15:10) 5.1 (00:00) 13 4.72 (16:40) 2.22 (17:10) 0 0 0 0 0
31-10-2020 19.9 (13:40) 4.5 (00:00) 12.2 5.83 (15:40) 3.61 (15:40) 0 0 0 0 0
30-10-2020 19.9 (14:40) 3 (00:00) 11.4 5 (21:30) 3.06 (21:30) 0 0 0 0 0
29-10-2020 18.1 (16:40) 5.9 (00:00) 12 10 (11:30) 5 (11:30) 0 0 0 0 0
28-10-2020 17.7 (15:20) 6.6 (00:00) 12.2 7.5 (17:30) 4.72 (17:30) 0.2 0.2 0 0 0
27-10-2020 13.4 (16:30) 1.9 (00:00) 7.6 8.89 (14:20) -- (--) -- 0 -- 0 0

Gráficas

Temp. máximas Temp. mínimas Temp. medias Precipitaciones Rachas de viento máximas Velocidades máximas media en intervalos de 10 minutos

Datos horarios

Fecha y hora oficial Temperatura (ºC) Velocidad del viento (km/h) Dirección del viento Racha (km/h) Dirección de racha Precipitación (mm) Presión (hPa) Tendencia (hPa) Humedad (%)
2020-11-25 23:00:00 6.8 19 Sudeste 48 Sudeste 0 881.8 -0.3 95
2020-11-25 22:00:00 6.8 19 Sudeste 44 Sudeste 0 881.8 -0.4 94
2020-11-25 21:00:00 6.5 16 Sudeste 44 Este 0 881.9 0.3 94
2020-11-25 20:00:00 6.4 19 Sudeste 44 Sudeste 0.2 882.1 -0.4 93
2020-11-25 19:00:00 6.7 20 Sudeste 36 Sudeste 0.2 882.2 -0.3 89
2020-11-25 18:00:00 6.8 17 Sudeste 40 Sudeste 0 881.6 -1.8 89
2020-11-25 17:00:00 7.2 15 Sudeste 40 Sur 0 882.5 -1.7 87
2020-11-25 16:00:00 7.1 14 Sudeste 33 Sur 0 882.5 -2.5 85
2020-11-25 15:00:00 6.7 13 Sudeste 32 Sudeste 0 883.4 -1.9 86
2020-11-25 14:00:00 6.9 13 Sudeste 35 Sur 0 884.2 -1.7 84
2020-11-25 13:00:00 7.2 13 Sur -- -- -- 885 -- 84
2020-11-25 12:00:00 7.3 21 Sudeste 40 Sur 0 885.3 -- 82
2020-11-25 11:00:00 6.8 19 Sudeste 36 Sudeste 0 885.9 -- 84
2020-11-25 10:00:00 5.1 15 Sudeste 30 Sudeste 0 885.9 -- 91
2020-11-25 09:00:00 3.9 12 Sudeste 25 Sudeste 0 885.9 -- 90
2020-11-25 08:00:00 3.3 13 Sudeste 21 Sur 0 -- -- 90
2020-11-25 07:00:00 2.6 9 Sudeste 15 Sudeste 0 886.3 -- 87
2020-11-25 06:00:00 2 3 Sudeste 11 Sudeste 0 886.4 -- 87
2020-11-25 05:00:00 2.7 6 Sudeste 11 Sudeste 0 886.9 -- 88
2020-11-25 04:00:00 2.8 7 Sudeste 15 Sudeste 0 887.4 -- 89
2020-11-25 03:00:00 2.9 8 Sudeste 14 Sudeste 0 887.7 -- 87
2020-11-25 02:00:00 3 8 Sudeste 14 Sudeste 0 888.1 -- 88
2020-11-25 01:00:00 3.6 8 Sudeste 17 Sur 0 888.7 -- 89
2020-11-25 00:00:00 3.5 5 Sudeste 13 Sudeste 0 888.9 -- 87
2020-11-24 23:00:00 4.5 6 Sudeste 13 Sudeste 0 889.4 -- 85
2020-11-24 22:00:00 4.9 8 Este 14 Sudeste 0 889.8 -- 85
2020-11-24 21:00:00 5.1 9 Este 14 Este 0 890.2 -- 85
2020-11-24 20:00:00 5.6 3 Este 6 Este 0 890.6 -- 81
2020-11-24 19:00:00 7.1 3 Este 14 Sudeste 0 890.7 -- 75
2020-11-24 18:00:00 8.8 8 Sudeste 13 Este 0 890.5 -- 70
2020-11-24 17:00:00 10.5 8 Sudeste 14 Sudeste 0 890.6 -- 60
2020-11-24 16:00:00 11.6 6 Sudeste 17 Sudeste 0 890.5 -- 55
2020-11-24 15:00:00 13.2 8 Sudeste 14 Sudeste 0 890.9 -- 47
2020-11-24 14:00:00 12.5 5 Sudeste 14 Sudeste 0 891.9 -- 48
2020-11-24 13:00:00 12.3 6 Sudeste 11 Sudeste 0 892.7 -- 49
2020-11-24 12:00:00 10 4 Sur 6 Sur 0 893.6 -- 62
2020-11-24 11:00:00 6.3 3 Sudoeste 9 Sur 0 893.9 -- 69
2020-11-24 10:00:00 3 4 Sur 8 Sudoeste 0 894.4 -- 80
2020-11-24 09:00:00 2.2 3 Sur 5 Sur 0 894.2 -- 84
2020-11-24 08:00:00 1.7 2 Sur 4 Sur 0 894 -- 84
2020-11-24 07:00:00 2 3 Sudoeste 7 Sudoeste 0 893.8 -- 84
2020-11-24 06:00:00 1 0 Calma 5 Sur 0 893.8 -- 88
2020-11-24 05:00:00 1.8 5 Sur 7 Sur 0 893.9 -- 86
2020-11-24 04:00:00 2.8 3 Sur 11 Sudoeste 0 894.4 -- 79
2020-11-24 03:00:00 4.7 5 Sur 11 Sudeste 0 894.9 -- 72
2020-11-24 02:00:00 5.1 5 Sudeste 12 Sudeste 0 895.3 -- 72
2020-11-24 01:00:00 5 7 Sur 10 Sur 0 895.8 -- 78
2020-11-24 00:00:00 5 6 Sur 9 Sur 0 896.3 -- 74
2020-11-23 23:00:00 6.1 3 Sudoeste 14 Sur 0 896.5 -- 69
2020-11-23 22:00:00 6.7 9 Sur 15 Sur 0 896.4 -- 71
2020-11-23 21:00:00 6 6 Sudeste 10 Sudeste 0 896.6 -- 72
2020-11-23 20:00:00 6.8 2 Este 5 Sudeste 0 896.6 -- 61
2020-11-23 19:00:00 8.9 4 Este 10 Nordeste 0 896.6 -- 54
2020-11-23 18:00:00 11.3 5 Nordeste 12 Nordeste 0 896.4 -- 48
2020-11-23 17:00:00 13.3 9 Norte 16 Norte 0 896.3 -- 42
2020-11-23 16:00:00 14.7 6 Nordeste 15 Nordeste 0 896.1 -- 37
2020-11-23 15:00:00 14.7 10 Norte 17 Norte 0 896.4 -- 40
2020-11-23 14:00:00 16.5 4 Nordeste 8 Este 0 896.7 -- 36
2020-11-23 13:00:00 15.1 2 Sudoeste 5 Sur 0 897.4 -- 36
2020-11-23 12:00:00 11.6 0 Calma 6 Sur 0 898 -- 46
2020-11-23 11:00:00 8.5 5 Sur 7 Sudoeste 0 898.4 -- 53
2020-11-23 10:00:00 4.5 2 Sur 10 Sur 0 898.3 -- 69
2020-11-23 09:00:00 1.4 3 Sudeste 7 Sudeste 0 898 -- 84
2020-11-23 08:00:00 0.9 3 Sudeste 6 Sur 0 897.7 -- 85
2020-11-23 07:00:00 0.8 2 Sur 5 Sur 0 897.7 -- 86
2020-11-23 06:00:00 0.8 2 Sudeste 4 Sudeste 0 897.7 -- 89
2020-11-23 05:00:00 0.9 0 Calma 5 Sudeste 0 897.8 -- 87
2020-11-23 04:00:00 1.1 0 Calma 5 Sur 0 897.9 -- 86
2020-11-23 03:00:00 1.9 3 Este 4 Sudeste 0 897.9 -- 84
2020-11-23 02:00:00 2.6 3 Este 4 Este 0 898.1 -- 82
2020-11-23 01:00:00 2.6 3 Sudeste 6 Sudoeste 0 898.5 -- 81
2020-11-23 00:00:00 3.3 3 Sudeste 8 Sudoeste 0 898.6 -- 79
2020-11-22 23:00:00 3.5 3 Sur 9 Sur 0 898.5 -- 80
2020-11-22 22:00:00 4.3 4 Sur 8 Sur 0 898.6 -- 76
2020-11-22 21:00:00 5.2 2 Este 3 Este 0 898.3 -- 71
2020-11-22 20:00:00 6.7 0 Calma 4 Sur 0 898 -- 65
2020-11-22 19:00:00 9 2 Nordeste 8 Nordeste 0 897.7 -- 58
2020-11-22 18:00:00 11.5 5 Norte 13 Nordeste 0 897.5 -- 49
2020-11-22 17:00:00 13 9 Nordeste 15 Norte 0 897.4 -- 43
2020-11-22 16:00:00 13.6 9 Norte 18 Norte 0 897.2 -- 39
2020-11-22 15:00:00 13.9 7 Norte 17 Nordeste 0 897.4 -- 41
2020-11-22 14:00:00 13.7 10 Norte 17 Norte 0 897.8 -- 41
2020-11-22 13:00:00 12.9 7 Norte 14 Nordeste 0 898.4 -- 44
2020-11-22 12:00:00 11.9 6 Norte 13 Norte 0 899 -- 47
2020-11-22 11:00:00 8.9 3 Sudoeste 5 Sur 0 899.2 -- 55
2020-11-22 10:00:00 5.1 2 Sur 6 Sur 0 899.1 -- 68
2020-11-22 09:00:00 1.4 3 Sur 5 Sur 0 898.8 -- 81
2020-11-22 08:00:00 0.8 2 Sudeste 3 Sur 0 898.6 -- 81
2020-11-22 07:00:00 1.4 0 Calma 9 Sudoeste 0 898.4 -- 77
2020-11-22 06:00:00 2.6 6 Sudoeste 12 Sur 0 898.3 -- 73
2020-11-22 05:00:00 4.9 7 Sur 14 Sur 0 898.1 -- 65
2020-11-22 04:00:00 5.5 8 Sur 16 Sur 0 898.1 -- 61
2020-11-22 03:00:00 5.5 10 Sur 20 Sur 0 898.1 -- 61
2020-11-22 02:00:00 7.3 11 Sur 23 Sur 0 898.1 -- 56
2020-11-22 01:00:00 7.2 14 Sur 23 Sur 0 898.2 -- 58
2020-11-22 00:00:00 6.9 8 Sur 17 Sur 0 898.1 -- 57
2020-11-21 23:00:00 7 5 Sudeste 18 Sur 0 897.9 -- 51
2020-11-21 22:00:00 7.5 8 Sur 17 Sur 0 898 -- 45
2020-11-21 21:00:00 7.8 8 Sudeste 24 Sudeste 0 898 -- 48
2020-11-21 20:00:00 8.2 8 Sur 19 Sur 0 897.9 -- 46
2020-11-21 19:00:00 8.8 9 Sudeste 20 Sudeste 0 897.6 -- 49
2020-11-21 18:00:00 11.7 4 Sur 12 Sudeste 0 897.2 -- 48
2020-11-21 17:00:00 13.8 5 Nordeste 13 Norte 0 896.9 -- 44
2020-11-21 16:00:00 14.8 8 Norte 15 Nordeste 0 896.6 -- 49
2020-11-21 15:00:00 15.9 5 Este 13 Norte 0 896.7 -- 36
2020-11-21 14:00:00 14.7 6 Norte 11 Norte 0 896.9 -- 47
2020-11-21 13:00:00 13.8 4 Noroeste 10 Noroeste 0 897.5 -- 46
2020-11-21 12:00:00 11.4 8 Norte 13 Norte 0 898.1 -- 48
2020-11-21 11:00:00 9.7 2 Noroeste 5 Oeste 0 898 -- 43
2020-11-21 10:00:00 5.4 2 Sur 7 Sudoeste 0 898 -- 58
2020-11-21 09:00:00 1.7 3 Sudeste 9 Sur 0 897.7 -- 73
2020-11-21 08:00:00 0.9 3 Sudeste 8 Sudeste 0 897.5 -- 77
2020-11-21 07:00:00 0.9 3 Sudeste 9 Sudeste 0 897.4 -- 78
2020-11-21 06:00:00 1.1 2 Sur 5 Este 0 897.5 -- 80
2020-11-21 05:00:00 1.3 2 Sudeste 9 Sudeste 0 897.6 -- 79
2020-11-21 04:00:00 1.7 5 Sudeste 9 Sudeste 0 897.8 -- 77
2020-11-21 03:00:00 2.1 3 Sur 13 Sudoeste 0 898.2 -- 77
2020-11-21 02:00:00 1.8 4 Sur 11 Sur 0 898.6 -- 81
2020-11-21 01:00:00 2 3 Sur 7 Sudeste 0 899.1 -- 82
2020-11-21 00:00:00 2.7 3 Sur 9 Sur 0 899.5 -- 83
2020-11-20 23:00:00 2.7 4 Sur 7 Sudeste 0 900.1 -- 82
2020-11-20 22:00:00 3.7 3 Sur 10 Sudoeste 0 900.1 -- 77
2020-11-20 21:00:00 4.6 4 Sudoeste 7 Sudoeste 0 900.2 -- 76
2020-11-20 20:00:00 5.8 0 Calma 5 Oeste 0 900.2 -- 73
2020-11-20 19:00:00 7.6 5 Norte 10 Norte 0 900.3 -- 65
2020-11-20 18:00:00 8.5 9 Norte 20 Nordeste 0 900.3 -- 62
2020-11-20 17:00:00 9.9 11 Norte 23 Norte 0 900 -- 65
2020-11-20 16:00:00 10 14 Norte 21 Norte 0 900.5 -- 60
2020-11-20 15:00:00 10.9 10 Norte 20 Norte 0 900.6 -- 55
2020-11-20 14:00:00 11.5 7 Norte 13 Norte 0 901 -- 47
2020-11-20 13:00:00 9.8 6 Noroeste 13 Norte 0 901.7 -- 61
2020-11-20 12:00:00 8.4 8 Norte 14 Nordeste 0 902.5 -- 66
2020-11-20 11:00:00 6.3 2 Noroeste 8 Sur 0 902.3 -- 83
2020-11-20 10:00:00 4.4 3 Sudeste 7 Sur 0 902.5 -- 96
2020-11-20 09:00:00 2.2 2 Este 6 Este 0 902.3 -- 97
2020-11-20 08:00:00 2.5 3 Nordeste 7 Nordeste 0 902.2 -- 96
2020-11-20 07:00:00 3.6 0 Calma 6 Norte 0 902.3 -- 96
2020-11-20 06:00:00 4.5 0 Calma 4 Oeste 0 902.7 -- 99
2020-11-20 05:00:00 4.2 3 Norte 9 Noroeste 0 902.9 -- 98
2020-11-20 04:00:00 3.9 2 Noroeste 5 Oeste 0 903.4 -- 97
2020-11-20 03:00:00 4.3 3 Noroeste 6 Oeste 0 903.3 -- 96
2020-11-20 02:00:00 4.7 0 Calma 6 Sur 0 903.5 -- 95
2020-11-20 01:00:00 5.4 3 Sudoeste 6 Este 0 903.8 -- 95
2020-11-20 00:00:00 6.1 3 Nordeste 10 Sur 0 904.1 -- 93
2020-11-19 23:00:00 7 2 Sur 8 Sur 0 904.1 -- 90
2020-11-19 22:00:00 8.7 0 Calma 9 Norte 0 904 -- 86
2020-11-19 21:00:00 10 5 Norte 11 Norte 0 904.2 -- 87
2020-11-19 20:00:00 10.5 3 Norte 9 Norte 0 903.9 -- 84
2020-11-19 19:00:00 12 6 Norte 13 Norte 0 903.7 -- 76
2020-11-19 18:00:00 13.8 5 Norte 19 Norte 0 903.4 -- 69
2020-11-19 17:00:00 15.1 10 Norte 20 Norte 0 903.2 -- 62
2020-11-19 16:00:00 16 10 Norte 22 Norte 0 902.9 -- 56
2020-11-19 15:00:00 16.1 10 Norte 21 Norte 0 903.3 -- 57
2020-11-19 14:00:00 17 8 Noroeste 15 Noroeste 0 903.6 -- 52
2020-11-19 13:00:00 16.3 6 Sudoeste 12 Oeste 0 903.8 -- 59
2020-11-19 12:00:00 13.8 4 Oeste 15 Noroeste 0 904.7 -- 69
2020-11-19 11:00:00 11.8 9 Noroeste 17 Norte 0 904.8 -- 69
2020-11-19 10:00:00 8.7 4 Oeste 9 Noroeste 0 904.5 -- 75
2020-11-19 09:00:00 5.2 3 Sur 5 Este 0 903.4 -- 87
2020-11-19 08:00:00 4.7 0 Calma 8 Sur 0 902.8 -- 86
2020-11-19 07:00:00 5 3 Sur 5 Sur 0 902.4 -- 85
2020-11-19 06:00:00 5.4 3 Sur 6 Este 0 902 -- 85
2020-11-19 05:00:00 5.2 2 Sur 5 Este 0 901.8 -- 86
2020-11-19 04:00:00 5.8 3 Sur 5 Sur 0 901.5 -- 83
2020-11-19 03:00:00 6.1 3 Sudeste 5 Sudeste 0 901.3 -- 85
2020-11-19 02:00:00 6.7 4 Sur 8 Sur 0 901.4 -- 82
2020-11-19 01:00:00 7.2 3 Sur 6 Sur 0 901.4 -- 81
2020-11-19 00:00:00 7.8 3 Este 5 Este 0 901.4 -- 79
2020-11-18 23:00:00 8.2 0 Calma 7 Este 0 901.3 -- 76
2020-11-18 22:00:00 8.8 3 Sur 5 Sudeste 0 901 -- 75
2020-11-18 21:00:00 9.9 2 Oeste 5 Este 0 900.5 -- 69
2020-11-18 20:00:00 11.3 2 Sudeste 3 Sudeste 0 899.9 -- 64
2020-11-18 19:00:00 13.8 0 Calma 6 Nordeste 0 899.6 -- 54
2020-11-18 18:00:00 17.3 5 Nordeste 9 Nordeste 0 899 -- 43
2020-11-18 17:00:00 19 8 Nordeste 13 Norte 0 898.7 -- 38
2020-11-18 16:00:00 20.4 5 Norte 11 Norte 0 898.6 -- 33
2020-11-18 15:00:00 20.5 7 Nordeste 13 Este 0 898.5 -- 34
2020-11-18 14:00:00 21.2 4 Norte 9 Noroeste 0 898.7 -- 33
2020-11-18 13:00:00 19.8 4 Sur 7 Sudoeste 0 899.2 -- 39
2020-11-18 12:00:00 15.9 3 Sur 7 Sur 0 899.5 -- 50
2020-11-18 11:00:00 12.3 0 Calma 4 Sur 0 899.7 -- 60
2020-11-18 10:00:00 8 2 Sudoeste 6 Sur 0 899.4 -- 73
2020-11-18 09:00:00 5.2 4 Sur 6 Sur 0 899.1 -- 83
2020-11-18 08:00:00 5.4 3 Sudoeste 6 Sudoeste 0 898.7 -- 82
2020-11-18 07:00:00 6.3 5 Sudeste 10 Este 0 898.4 -- 79
2020-11-18 06:00:00 5.5 3 Oeste 10 Oeste 0 898.2 -- 86
2020-11-18 05:00:00 5.3 2 Noroeste 8 Oeste 0 898 -- 86
2020-11-18 04:00:00 5.6 2 Sur 5 Sudoeste 0 898.1 -- 84
2020-11-18 03:00:00 6.5 2 Sur 9 Sudeste 0 898.1 -- 81
2020-11-18 02:00:00 7.5 3 Sudeste 10 Sudeste 0 898.2 -- 73
2020-11-18 01:00:00 8.2 3 Sur 9 Sudeste 0 898.5 -- 68
2020-11-18 00:00:00 10.1 7 Sudeste 15 Sudeste 0 898.4 -- 65
2020-11-17 23:00:00 9.7 5 Sur 12 Sudeste 0 898.5 -- 68
2020-11-17 22:00:00 9.2 5 Sudeste 10 Sudeste 0 898.4 -- 71
2020-11-17 21:00:00 10.1 3 Sudeste 5 Sur 0 898.5 -- 69
2020-11-17 20:00:00 11.4 3 Este 7 Sudeste 0 898.2 -- 69
2020-11-17 19:00:00 13 3 Este 6 Este 0 897.9 -- 66
2020-11-17 18:00:00 16.3 5 Este 12 Sudeste 0 897.4 -- 55
2020-11-17 17:00:00 20.1 6 Sudeste 11 Sur 0 897.4 -- 43
2020-11-17 16:00:00 21.9 3 Oeste 8 Oeste 0 897.2 -- 30
2020-11-17 15:00:00 21 3 Noroeste 6 Oeste 0 897.2 -- 30
2020-11-17 14:00:00 20 4 Oeste 8 Oeste 0 897.5 -- 32
2020-11-17 13:00:00 18.7 3 Sudoeste 6 Sur 0 898.1 -- 34
2020-11-17 12:00:00 14.3 2 Sudeste 8 Sur 0 898.7 -- 52
2020-11-17 11:00:00 11.4 2 Sudoeste 9 Sudoeste 0 898.9 -- 62
2020-11-17 10:00:00 7.2 3 Sudeste 8 Sur 0 898.6 -- 78
2020-11-17 09:00:00 3.6 3 Sudeste 7 Sur 0 898.3 -- 95
2020-11-17 08:00:00 3.1 3 Sur 6 Sudeste 0 897.9 -- 96
2020-11-17 07:00:00 3.5 0 Calma 6 Sur 0 897.6 -- 96
2020-11-17 06:00:00 3.8 3 Sur 7 Sudoeste 0 897.4 -- 95
2020-11-17 05:00:00 4.2 2 Sudeste 6 Sudeste 0 897.4 -- 95
2020-11-17 04:00:00 4.8 4 Sur 6 Sur 0 897.6 -- 96
2020-11-17 03:00:00 5.1 4 Sur 6 Sur 0 897.5 -- 95
2020-11-17 02:00:00 5.1 3 Sudeste 5 Sudeste 0 897.8 -- 95
2020-11-17 01:00:00 5.8 2 Sudeste 5 Sur 0 898 -- 96
2020-11-17 00:00:00 6.3 3 Sur 7 Sur 0 898.2 -- 94
2020-11-16 23:00:00 6.9 0 Calma 5 Sudeste 0 898 -- 91
2020-11-16 22:00:00 8 3 Este 8 Sudeste 0 898 -- 89
2020-11-16 21:00:00 9.4 3 Sudeste 11 Nordeste 0 897.6 -- 86
2020-11-16 20:00:00 10.3 6 Nordeste 11 Norte 0 897.2 -- 84
2020-11-16 19:00:00 11 6 Norte 15 Norte 0 896.8 -- 81
2020-11-16 18:00:00 12.5 8 Norte 17 Norte 0 896.5 -- 75
2020-11-16 17:00:00 13.9 9 Norte 19 Norte 0 896.1 -- 68
2020-11-16 16:00:00 14.9 8 Norte 15 Norte 0 896 -- 62
2020-11-16 15:00:00 15.4 6 Noroeste 14 Noroeste 0 895.9 -- 58
2020-11-16 14:00:00 14.6 7 Norte 15 Norte 0 896 -- 60
2020-11-16 13:00:00 13.6 11 Norte 21 Norte 0 896.6 -- 69
2020-11-16 12:00:00 13.5 4 Norte 9 Oeste 0 896.5 -- 72
2020-11-16 11:00:00 12.4 6 Norte 14 Norte 0 896 -- 76
2020-11-16 10:00:00 11.6 6 Noroeste 14 Norte 0 896.3 -- 88
2020-11-16 09:00:00 10.7 5 Norte 12 Noroeste 0 895.5 -- 90
2020-11-16 08:00:00 10.9 4 Noroeste 13 Noroeste 0 895.1 -- 90
2020-11-16 07:00:00 11.4 7 Noroeste 13 Noroeste 0 894.8 -- 91
2020-11-16 06:00:00 11.6 8 Noroeste 20 Oeste 0 894.7 -- 90
2020-11-16 05:00:00 11.8 11 Noroeste 18 Noroeste 0 894.1 -- 86
2020-11-16 04:00:00 12.3 8 Oeste 14 Oeste 0 894.3 -- 82
2020-11-16 03:00:00 12.4 5 Oeste 17 Oeste 0 894.4 -- 80
2020-11-16 02:00:00 12.5 5 Sudoeste 12 Sudoeste 0 894.4 -- 86
2020-11-16 01:00:00 12.8 6 Sudoeste 25 Oeste 0 894.5 -- 83
2020-11-16 00:00:00 12.9 12 Oeste 22 Oeste 0 894.7 -- 82
2020-11-15 23:00:00 13.1 8 Oeste 20 Oeste 0 894.3 -- 79
2020-11-15 22:00:00 12.4 3 Este 23 Sur 0 894 -- 83
2020-11-15 21:00:00 12.5 5 Sur 12 Sur 0 893.2 -- 82
2020-11-15 20:00:00 13 5 Sur 19 Sudeste 0 893.1 -- 80
2020-11-15 19:00:00 13.7 5 Sudoeste 18 Sudoeste 0 893.1 -- 77
2020-11-15 18:00:00 14.2 10 Sudoeste 24 Sudoeste 0 892.5 -- 75
2020-11-15 17:00:00 15 15 Oeste 34 Oeste 0 892.8 -- 70
2020-11-15 16:00:00 16 18 Oeste 37 Oeste 0 892.4 -- 65
2020-11-15 15:00:00 16.8 22 Oeste 43 Oeste 0 892.3 -- 62
2020-11-15 14:00:00 17.3 17 Sudoeste 35 Oeste 0 892.3 -- 62
2020-11-15 13:00:00 17.1 16 Oeste 31 Oeste 0 892.5 -- 63
2020-11-15 12:00:00 17.3 6 Oeste 17 Sur 0 892.8 -- 67
2020-11-15 11:00:00 15.7 5 Sudoeste 16 Sudeste 0 892.5 -- 71
2020-11-15 10:00:00 13 8 Sudeste 17 Sudeste 0 892.9 -- 81
2020-11-15 09:00:00 9.6 7 Sudeste 12 Sudeste 0 892.7 -- 91
2020-11-15 08:00:00 9.5 9 Sudeste 15 Sudeste 0 892.2 -- 91
2020-11-15 07:00:00 9.6 9 Sudeste 17 Sudeste 0 891.8 -- 86
2020-11-15 06:00:00 9.2 9 Sudeste 15 Sudeste 0 891.6 -- 87
2020-11-15 05:00:00 9.2 9 Sudeste 22 Sudeste 0 891.7 -- 89
2020-11-15 04:00:00 9.2 13 Sudeste 21 Sudeste 0 891.8 -- 90
2020-11-15 03:00:00 8.9 12 Sudeste 18 Sudeste 0 892.1 -- 91
2020-11-15 02:00:00 8.7 8 Sudeste 17 Sudeste 0 892.4 -- 91
2020-11-15 01:00:00 8.4 11 Sudeste 17 Sudeste 0 892.7 -- 94
2020-11-15 00:00:00 8.3 13 Sudeste 20 Sudeste 0 892.9 -- 97
2020-11-14 23:00:00 8.9 8 Sudeste 14 Sudeste 0 893.2 -- 95
2020-11-14 22:00:00 9.1 10 Sudeste 19 Sudeste 0 893.1 -- 94
2020-11-14 21:00:00 9.2 9 Sudeste 21 Sudeste 0 892.8 -- 94
2020-11-14 20:00:00 9.7 13 Sudeste 22 Sudeste 0 892.5 -- 92
2020-11-14 19:00:00 9.9 12 Sudeste 18 Sudeste 0 891.9 -- 91
2020-11-14 18:00:00 10.4 13 Sudeste 23 Sudeste 0 891.5 -- 89
2020-11-14 17:00:00 10.9 14 Sudeste 24 Sudeste 0 891.3 -- 87
2020-11-14 16:00:00 12.2 13 Sudeste 26 Sudeste 0 891 -- 80
2020-11-14 15:00:00 13.4 13 Sudeste 26 Sudeste 0 891 -- 75
2020-11-14 14:00:00 12.2 10 Sudeste 23 Sudeste 0 891.4 -- 81
2020-11-14 13:00:00 11.3 12 Sudeste 23 Sudeste 0 891.7 -- 83
2020-11-14 12:00:00 11.3 10 Sudeste 22 Sur 0 892.2 -- 84
2020-11-14 11:00:00 9.3 8 Sudeste 14 Sur 0.2 892.3 -- 91
2020-11-14 10:00:00 9.1 8 Sudeste 20 Sudeste 0 892.2 -- 89
2020-11-14 09:00:00 8.8 8 Sur 15 Sur 0 892 -- 85
2020-11-14 08:00:00 8.5 8 Sudeste 16 Sur 0 891.4 -- 84
2020-11-14 07:00:00 8.7 7 Sur 14 Sur 0 891.2 -- 84
2020-11-14 06:00:00 8.7 6 Sudeste 13 Sudeste 0 890.9 -- 84
2020-11-14 05:00:00 8.8 8 Sudeste 13 Sur 0 890.9 -- 84
2020-11-14 04:00:00 9.1 8 Sur 18 Sudeste 0 891.2 -- 82
2020-11-14 03:00:00 9.1 6 Sur 19 Sudeste 0 891.6 -- 81
2020-11-14 02:00:00 8.7 5 Este 16 Sudeste 0 891.8 -- 83
2020-11-14 01:00:00 8.7 8 Este 18 Sur 0 892.2 -- 83
2020-11-14 00:00:00 8.7 9 Sudeste 22 Sur 0 892.5 -- 85
2020-11-13 23:00:00 8.7 13 Sur 26 Sudeste 0 892.4 -- 86
2020-11-13 22:00:00 8.4 11 Sudeste 23 Sur 0 891.9 -- 87
2020-11-13 21:00:00 8.6 11 Sudeste 21 Sudeste 0 892.1 -- 85
2020-11-13 20:00:00 9.1 9 Sudeste 17 Sudeste 0 892.1 -- 84
2020-11-13 19:00:00 9.3 9 Sudeste 20 Sudeste 0 892.1 -- 84
2020-11-13 18:00:00 9.9 10 Sudeste 25 Sur 0 891.5 -- 80
2020-11-13 17:00:00 10.6 9 Sur 26 Sur 0 891.2 -- 77
2020-11-13 16:00:00 11.4 13 Sur 27 Sur 0 891 -- 72
2020-11-13 15:00:00 11.5 11 Sudeste 20 Sudeste 0 891.6 -- 71
2020-11-13 14:00:00 12.1 7 Sudeste 10 Sudeste 0 891.9 -- 64
2020-11-13 13:00:00 12.5 6 Sudoeste 10 Sudoeste 0 892.4 -- 58
2020-11-13 12:00:00 12.3 4 Sur 12 Sudeste 0 892.8 -- 64
2020-11-13 11:00:00 9.9 6 Sudoeste 11 Sudoeste 0 893.1 -- 70
2020-11-13 10:00:00 7.1 4 Sudoeste 12 Sur 0 892.9 -- 78
2020-11-13 09:00:00 6.2 5 Sur 12 Sur 0 892.4 -- 84
2020-11-13 08:00:00 5.6 6 Sur 11 Sur 0 891.9 -- 81
2020-11-13 07:00:00 6.8 5 Sur 12 Sur 0 891.6 -- 84
2020-11-13 06:00:00 6.7 5 Sur 16 Sudeste 0 891.5 -- 87
2020-11-13 05:00:00 6.9 5 Sudeste 9 Sudeste 0 891.6 -- 88
2020-11-13 04:00:00 7.9 5 Sur 13 Sur 0 891.6 -- 83
2020-11-13 03:00:00 8.2 4 Sur 11 Sur 0 891.6 -- 82
2020-11-13 02:00:00 8.4 5 Sudeste 14 Sudeste 0 891.8 -- 82
2020-11-13 01:00:00 8.7 8 Sur 14 Sudeste 0 892.4 -- 81
2020-11-13 00:00:00 8.5 5 Sur 14 Sur 0 892.4 -- 82
2020-11-12 23:00:00 8.7 7 Sudeste 15 Sudeste 0 892.4 -- 81
2020-11-12 22:00:00 8.6 5 Sur 18 Sur 0 892.4 -- 81
2020-11-12 21:00:00 9.1 10 Sudeste 21 Sudeste 0 892.3 -- 82
2020-11-12 20:00:00 9.1 8 Sur 21 Sur 0 892.4 -- 81
2020-11-12 19:00:00 9.2 8 Sudeste 13 Sudeste 0 892.1 -- 81
2020-11-12 18:00:00 10.9 7 Sudeste 17 Sudeste 0 892 -- 72
2020-11-12 17:00:00 12.2 8 Sudeste 19 Sur 0 892 -- 66
2020-11-12 16:00:00 12.9 12 Sudeste 19 Sudeste 0 892 -- 58
2020-11-12 15:00:00 13.5 10 Sudeste 18 Sudeste 0 892.4 -- 55
2020-11-12 14:00:00 13 10 Sudeste 22 Sudeste 0 892.9 -- 64
2020-11-12 13:00:00 12.6 7 Sudeste 15 Sudeste 0 893.5 -- 64
2020-11-12 12:00:00 11.3 7 Sudeste 15 Sur 0 894.2 -- 70
2020-11-12 11:00:00 9.5 5 Sudeste 15 Sur 0 894.6 -- 82
2020-11-12 10:00:00 7.7 3 Sur 9 Sur 0 894.7 -- 83
2020-11-12 09:00:00 6.7 3 Sudeste 8 Sur 0 894.7 -- 88
2020-11-12 08:00:00 6.3 5 Sudeste 9 Sudeste 0 894.2 -- 90
2020-11-12 07:00:00 6.3 5 Sudeste 8 Sur 0 894.2 -- 90
2020-11-12 06:00:00 6.5 3 Sur 10 Oeste 0 894.3 -- 89
2020-11-12 05:00:00 6.7 0 Calma 6 Sur 0 894.3 -- 92
2020-11-12 04:00:00 6.7 2 Sudeste 8 Sudeste 0 894.4 -- 92
2020-11-12 03:00:00 7.1 3 Sur 12 Sudeste 0 894.8 -- 92
2020-11-12 02:00:00 6.6 3 Sur 8 Sudoeste 0 895.4 -- 89
2020-11-12 01:00:00 6.8 4 Sur 7 Sudoeste 0 895.5 -- 89
2020-11-12 00:00:00 6.7 4 Sur 9 Sudoeste 0 895.3 -- 88
2020-11-11 23:00:00 7.2 5 Sudeste 10 Sur 0 895.3 -- 86
2020-11-11 22:00:00 7.1 3 Este 7 Sudeste 0 895.1 -- 87
2020-11-11 21:00:00 7.9 4 Sudeste 12 Sudeste 0 895.1 -- 85
2020-11-11 20:00:00 8.6 2 Norte 8 Sudeste 0 895.2 -- 82
2020-11-11 19:00:00 9.8 4 Sudeste 10 Sudeste 0 894.8 -- 78
2020-11-11 18:00:00 11.6 5 Sudeste 12 Sudeste 0 894.5 -- 71
2020-11-11 17:00:00 13.1 4 Sur 15 Sudeste 0 894.6 -- 60
2020-11-11 16:00:00 14 10 Sudeste 19 Sudeste 0 894.3 -- 57
2020-11-11 15:00:00 14.9 12 Sudeste 22 Sudoeste 0 894.3 -- 54
2020-11-11 14:00:00 14.4 10 Sudeste 23 Sudeste 0 894.7 -- 55
2020-11-11 13:00:00 13.2 11 Sudeste 28 Sudeste 0 895 -- 63
2020-11-11 12:00:00 12 11 Sur 30 Sur 0 895.6 -- 74
2020-11-11 11:00:00 10.1 17 Sudeste 30 Sudeste 0 895.9 -- 81
2020-11-11 10:00:00 8.7 15 Sur 31 Sur 0 896.1 -- 87
2020-11-11 09:00:00 7 12 Sur 22 Sur 0 895.9 -- 94
2020-11-11 08:00:00 6.7 9 Sur 23 Sudeste 0 895.6 -- 92
2020-11-11 07:00:00 7.2 12 Sudeste 30 Sudeste 0 895.7 -- 89
2020-11-11 06:00:00 6.8 13 Sudeste 29 Sudeste 0 895.8 -- 94
2020-11-11 05:00:00 4.8 9 Sudeste 15 Sudeste 0 895.9 -- 97
2020-11-11 04:00:00 4.6 6 Sudeste 11 Sudeste 0 896.3 -- 97
2020-11-11 03:00:00 4.4 6 Sudeste 9 Sudeste 0 897.1 -- 97
2020-11-11 02:00:00 4.4 2 Sudeste 10 Sudeste 0 897.7 -- 91
2020-11-11 01:00:00 5.2 5 Sudeste 9 Sur 0 897.9 -- 97
2020-11-11 00:00:00 4.7 0 Calma 3 Sudeste 0 898 -- 95
2020-11-10 23:00:00 5.3 3 Sur 6 Sudeste 0 897.8 -- 94
2020-11-10 22:00:00 6.4 0 Calma 5 Este 0 897.9 -- 93
2020-11-10 21:00:00 7.2 4 Este 7 Sudeste 0 897.7 -- 88
2020-11-10 20:00:00 8.7 4 Sudeste 12 Este 0 897.6 -- 84
2020-11-10 19:00:00 9.7 6 Este 13 Nordeste 0 897.5 -- 80
2020-11-10 18:00:00 11 9 Norte 20 Norte 0 897.5 -- 81
2020-11-10 17:00:00 12.7 9 Norte 18 Nordeste 0 897.3 -- 72
2020-11-10 16:00:00 13.7 9 Norte 14 Norte 0 897 -- 66
2020-11-10 15:00:00 12.9 8 Nordeste 15 Nordeste 0 897.2 -- 67
2020-11-10 14:00:00 13.9 8 Norte 17 Norte 0 897.5 -- 58
2020-11-10 13:00:00 13.5 3 Nordeste 8 Sur 0 898.1 -- 58
2020-11-10 12:00:00 12.6 4 Sudoeste 9 Sudoeste 0 898.5 -- 66
2020-11-10 11:00:00 10.5 4 Sur 7 Sur 0 898.4 -- 76
2020-11-10 10:00:00 7.9 3 Sudoeste 13 Sudoeste 0 898.3 -- 89
2020-11-10 09:00:00 6.1 4 Sur 7 Sur 0 897.9 -- 94
2020-11-10 08:00:00 5.9 2 Sudoeste 4 Sudoeste 0 897.4 -- 97
2020-11-10 07:00:00 5.6 0 Calma 10 Sudeste 0 897 -- 98
2020-11-10 06:00:00 4.8 3 Sudeste 5 Sur 0 896.8 -- 97
2020-11-10 05:00:00 4.8 3 Sudeste 5 Este 0 896.6 -- 96
2020-11-10 04:00:00 5.9 3 Este 8 Sudeste 0 896.6 -- 96
2020-11-10 03:00:00 5.9 2 Sur 4 Sur 0 896.8 -- 98
2020-11-10 02:00:00 5.5 2 Sur 6 Sudeste 0 896.8 -- 94
2020-11-10 01:00:00 6.4 3 Este 5 Oeste 0 896.8 -- 96
2020-11-10 00:00:00 5.8 3 Este 5 Sudeste 0 896.7 -- 96
2020-11-09 23:00:00 6.2 2 Este 4 Este 0 896.7 -- 95
2020-11-09 22:00:00 7.3 0 Calma 5 Sudeste 0 896.4 -- 91
2020-11-09 21:00:00 8.9 0 Calma 5 Noroeste 0 896.2 -- 87
2020-11-09 20:00:00 9.6 3 Norte 10 Norte 0 896.1 -- 85
2020-11-09 19:00:00 10.3 7 Norte 14 Norte 0 895.4 -- 81
2020-11-09 18:00:00 10.6 6 Norte 21 Norte 0 895 -- 81
2020-11-09 17:00:00 11.8 8 Norte 14 Norte 0 894.5 -- 68
2020-11-09 16:00:00 11.9 8 Norte 17 Norte 0 894 -- 65
2020-11-09 15:00:00 12.2 8 Norte 18 Nordeste 0 893.9 -- 68
2020-11-09 14:00:00 12.7 9 Norte 19 Norte 0 893.9 -- 63
2020-11-09 13:00:00 13.9 9 Oeste 14 Oeste 0 894 -- 55
2020-11-09 12:00:00 12.6 3 Noroeste 8 Sudeste 0 894.4 -- 69
2020-11-09 11:00:00 10.5 2 Norte 7 Oeste 0 894.4 -- 79
2020-11-09 10:00:00 9.3 5 Oeste 15 Sudeste 0 894.2 -- 88
2020-11-09 09:00:00 7.5 6 Sudeste 16 Sudeste 0 893.7 -- 95
2020-11-09 08:00:00 7.4 9 Sudeste 14 Sudeste 0 892.9 -- 95
2020-11-09 07:00:00 7.6 8 Sudeste 13 Sudeste 0 892.4 -- 93
2020-11-09 06:00:00 8.1 9 Sudeste 16 Sudeste 0 891.9 -- 92
2020-11-09 05:00:00 8.5 5 Sur 21 Sur 0 891.9 -- 93
2020-11-09 04:00:00 9.3 9 Sur 22 Sudeste 0 892 -- 89
2020-11-09 03:00:00 9.1 12 Sudeste 21 Sudeste 0 891.7 -- 92
2020-11-09 02:00:00 9.1 9 Sudeste 26 Sudeste 1 891.8 -- 92
2020-11-09 01:00:00 9.3 9 Sudeste 27 Sudeste 0 892.6 -- 88
2020-11-09 00:00:00 9.3 11 Sudeste 30 Sudeste 0 892.5 -- 87
2020-11-08 23:00:00 9.4 13 Sudeste 32 Sudeste 0 891.7 -- 86
2020-11-08 22:00:00 9.5 15 Sudeste 31 Sudeste 0 892.3 -- 87
2020-11-08 21:00:00 9.7 9 Sudeste 23 Sur 0 892.4 -- 87
2020-11-08 20:00:00 9.7 12 Sudeste 22 Sur 0 892.5 -- 85
2020-11-08 19:00:00 9.8 9 Sudeste 32 Sudeste 0 892.5 -- 85
2020-11-08 18:00:00 10.6 12 Sur 26 Sudeste 0 892 -- 79
2020-11-08 17:00:00 11.4 13 Sudeste 27 Sudeste 0 892.1 -- 74
2020-11-08 16:00:00 11.6 12 Sur 39 Sur 0 892.3 -- 74
2020-11-08 15:00:00 12.8 13 Sur 37 Sur 0 891.9 -- 71
2020-11-08 14:00:00 12.7 19 Sur 46 Sur 0 892.1 -- 68
2020-11-08 13:00:00 12.4 13 Sur 36 Sudeste 0 892.6 -- 68
2020-11-08 12:00:00 10.3 17 Sudeste 42 Sudeste 0 893.2 -- 79
2020-11-08 11:00:00 9 16 Sudeste 39 Sudeste 0 892.9 -- 83
2020-11-08 10:00:00 8.4 15 Sudeste 28 Sudeste 0 893.3 -- 89
2020-11-08 09:00:00 7.9 10 Sudeste 22 Sudeste 0 893.6 -- 93
2020-11-08 08:00:00 8 10 Sudeste 20 Sur 0 893.1 -- 91
2020-11-08 07:00:00 7.9 8 Sur 23 Sur 0 892.8 -- 89
2020-11-08 06:00:00 8 13 Sudeste 22 Sur 0 893.1 -- 90
2020-11-08 05:00:00 7.7 12 Sudeste 26 Sur 0 893 -- 90
2020-11-08 04:00:00 7.3 5 Sur 22 Sudeste 0 893.2 -- 90
2020-11-08 03:00:00 7.6 9 Sudeste 25 Sudeste 0 893.5 -- 87
2020-11-08 02:00:00 8 12 Sudeste 29 Sudeste 0 893.4 -- 85
2020-11-08 01:00:00 8.1 15 Sudeste 27 Sur 0 893.4 -- 83
2020-11-08 00:00:00 8 12 Sur 25 Sudoeste 0 893.6 -- 84
2020-11-07 23:00:00 8 8 Sudeste 16 Sudeste 0 893.5 -- 82
2020-11-07 22:00:00 8.4 7 Sur 18 Sudeste 0 893.4 -- 76
2020-11-07 21:00:00 8.3 6 Sur 17 Sur 0 893.2 -- 80
2020-11-07 20:00:00 8.7 5 Sudoeste 21 Sur 0 893.1 -- 79
2020-11-07 19:00:00 9.4 9 Sur 18 Sur 0 892.5 -- 78
2020-11-07 18:00:00 11.1 8 Sudoeste 20 Sudoeste 0 891.8 -- 71
2020-11-07 17:00:00 13 10 Sudoeste 19 Oeste 0 891.2 -- 63
2020-11-07 16:00:00 14.5 9 Sudoeste 18 Sudoeste 0 890.7 -- 63
2020-11-07 15:00:00 14.8 8 Sur 19 Sur 0 890.3 -- 63
2020-11-07 14:00:00 14.1 8 Sudoeste 22 Oeste 0 890 -- 67
2020-11-07 13:00:00 13.4 11 Sudoeste 18 Sudoeste 0 889.7 -- 68
2020-11-07 12:00:00 11.4 9 Sur 21 Sur 0 889.5 -- 78
2020-11-07 11:00:00 10.3 12 Sur 25 Sur 0 888.7 -- 83
2020-11-07 10:00:00 9.4 11 Sur 19 Sur 0.2 887.9 -- 86
2020-11-07 09:00:00 8.9 7 Sur 21 Sur 0 886.8 -- 88
2020-11-07 08:00:00 8.8 10 Sur 22 Sudeste 0 886.1 -- 90
2020-11-07 07:00:00 9.1 8 Sur 19 Sur 0.2 885.3 -- 89
2020-11-07 06:00:00 9.6 6 Sudoeste 39 Sur 0.4 885.2 -- 84
2020-11-07 05:00:00 9.7 8 Sudeste 24 Sur 2.8 885.2 -- 91
2020-11-07 04:00:00 10.4 9 Sur 30 Sudoeste 0 884.9 -- 83
2020-11-07 03:00:00 9.6 6 Noroeste 42 Sudeste 0 884.8 -- 89
2020-11-07 02:00:00 9.5 19 Sudeste 41 Sudeste 1 885.1 -- 92
2020-11-07 01:00:00 10.1 21 Sudeste 49 Sur 0.8 885.9 -- 89
2020-11-07 00:00:00 10.8 23 Sudeste 55 Sudeste 0.4 885.7 -- 85
2020-11-06 23:00:00 11.9 18 Sur 45 Sur 0.6 886.3 -- 75
2020-11-06 22:00:00 12.1 19 Sur 54 Sur 0.2 885.3 -- 89
2020-11-06 21:00:00 12 17 Sudeste 44 Sudeste 0 885.7 -- 87
2020-11-06 20:00:00 11.9 14 Sudeste 64 Sur 6 885.8 -- 86
2020-11-06 19:00:00 12.9 25 Sudeste 53 Sudeste 0.6 884.9 -- 89
2020-11-06 18:00:00 13.6 19 Sudeste 47 Este 0 885.3 -- 84
2020-11-06 17:00:00 14.1 19 Sudeste 37 Sudeste 0 886 -- 83
2020-11-06 16:00:00 14.1 19 Sudeste 43 Sudeste 0 886.1 -- 84
2020-11-06 15:00:00 14 22 Sudeste 48 Sudeste 0 886.5 -- 84
2020-11-06 14:00:00 13.3 18 Sudeste 55 Sudeste 0 886.8 -- 86
2020-11-06 13:00:00 12.7 28 Sudeste 58 Este 0 887.3 -- 87
2020-11-06 12:00:00 12.4 20 Sudeste 47 Sudeste 0 888.2 -- 86
2020-11-06 11:00:00 12.1 24 Sudeste 54 Sudeste 0 888.4 -0.6 85
2020-11-06 10:00:00 11.3 25 Sudeste 49 Sudeste 0 888.6 -- 89
2020-11-06 09:00:00 10.3 18 Sudeste 35 Sudeste 0 888.6 -- 92
2020-11-06 08:00:00 9.5 11 Sudeste 30 Sudeste 0.2 889 -- 93
2020-11-06 07:00:00 9.7 13 Sudeste 44 Sudeste 0.4 889.4 -- 92
2020-11-06 06:00:00 9.9 24 Sudeste 44 Sudeste 0 889.6 -- 90
2020-11-06 05:00:00 9.6 21 Sudeste 42 Sudeste 0.2 889.1 -- 92
2020-11-06 04:00:00 9.9 21 Sudeste 46 Sudeste 0 890 -- 92
2020-11-06 03:00:00 10.2 22 Sudeste 37 Sudeste 0 889.5 -- 90
2020-11-06 02:00:00 10.1 17 Sudeste 41 Sudeste 0 889.5 -- 92
2020-11-06 01:00:00 10 21 Sudeste 42 Sudeste 0 889.5 -- 95
2020-11-06 00:00:00 9.9 22 Sudeste 50 Sudeste 0 889.3 -- 97
2020-11-05 23:00:00 9.8 22 Sudeste 51 Sudeste 0.2 889.4 -- 96
2020-11-05 22:00:00 9.3 21 Sudeste 40 Sudeste 1.6 889.6 -- 96
2020-11-05 21:00:00 7.8 14 Este 27 Sudeste 7.4 889.9 -- 97
2020-11-05 20:00:00 9.8 15 Sur 44 Este 0 889.8 -- 84
2020-11-05 19:00:00 9.9 20 Sudeste 43 Sudeste 0.6 888.9 -- 91
2020-11-05 18:00:00 9.7 21 Sudeste 45 Sudeste 1.2 888.8 -- 92
2020-11-05 17:00:00 9.6 18 Sudeste 46 Sur 1 889.2 -- 91
2020-11-05 16:00:00 10 18 Sudeste 42 Este 1.8 889 -- 91
2020-11-05 15:00:00 10.4 19 Sudeste 47 Sudeste 0.4 888.9 -- 90
2020-11-05 14:00:00 9.8 18 Sudeste 45 Sudeste 0.4 889.3 -- 93
2020-11-05 13:00:00 10.1 22 Sudeste 44 Sudeste 0 889.7 -- 89
2020-11-05 12:00:00 9.8 15 Sudeste 49 Este 0 890.2 -- 89
2020-11-05 11:00:00 9.4 17 Sudeste 55 Sudeste 0 890.6 -- 89
2020-11-05 10:00:00 9.4 24 Sudeste 65 Este 1.2 889.7 -- 90
2020-11-05 09:00:00 8.5 19 Sudeste 43 Este 2.4 889.5 -- 93
2020-11-05 08:00:00 8 8 Sudeste 27 Sudeste 2 889.7 -- 92
2020-11-05 07:00:00 8 16 Sudeste 40 Sudeste 0.6 889.3 -- 90
2020-11-05 06:00:00 8.4 13 Este 36 Sudeste 0.2 889.4 -- 85
2020-11-05 05:00:00 8.4 17 Sudeste 41 Sudeste 0 889.7 -- 87
2020-11-05 04:00:00 8.5 17 Este 33 Este 0 889.6 -- 89
2020-11-05 03:00:00 8.2 19 Este 42 Sudeste 0 889.6 -- 91
2020-11-05 02:00:00 7.7 19 Sudeste 38 Este 0.6 889.6 -- 94
2020-11-05 01:00:00 7.8 15 Sudeste 35 Sudeste 0 889.9 -- 93
2020-11-05 00:00:00 7.4 17 Este 34 Este 0.2 889.9 -- 93
2020-11-04 23:00:00 7.1 12 Este 35 Este 0 889.5 -- 94
2020-11-04 22:00:00 7.3 13 Este 27 Este 0.2 889.3 -- 94
2020-11-04 21:00:00 6.9 6 Este 21 Este 0.6 889.1 -- 96
2020-11-04 20:00:00 6.5 6 Este 13 Sudeste 0.8 888.8 -- 98
2020-11-04 19:00:00 6 5 Este 17 Este 1 888.6 -- 96
2020-11-04 18:00:00 6 3 Nordeste 23 Este 2.6 888.6 -- 96
2020-11-04 17:00:00 6 8 Este 21 Nordeste 2 888.5 -- 96
2020-11-04 16:00:00 5.7 5 Nordeste 16 Nordeste 1.6 889 -- 96
2020-11-04 15:00:00 5.4 10 Nordeste 19 Nordeste 2 889 -- 97
2020-11-04 14:00:00 5.2 14 Nordeste 22 Nordeste 0 889.3 -- 99
2020-11-04 13:00:00 4.7 12 Nordeste 18 Nordeste 0 890 -- 100
2020-11-04 12:00:00 3.7 7 Norte 13 Norte 0 890.9 -- 100
2020-11-04 11:00:00 3.3 6 Nordeste 15 Norte 0.2 891.5 -0.4 100
2020-11-04 10:00:00 3.2 9 Norte 14 Norte 0 891.7 -- 100
2020-11-04 09:00:00 3 6 Norte 17 Norte 0 891.7 -- 100
2020-11-04 08:00:00 3.1 7 Norte 19 Norte 0 891.9 -- 100
2020-11-04 07:00:00 3.4 12 Norte 18 Norte 0 892 -- 100
2020-11-04 06:00:00 3.8 9 Norte 16 Norte 0 892.7 -- 100
2020-11-04 05:00:00 3.9 8 Norte 14 Norte 0 893.1 -- 100
2020-11-04 04:00:00 4.2 8 Norte 16 Noroeste 0 893.7 -- 100
2020-11-04 03:00:00 4.4 11 Norte 16 Norte 0 894.4 -- 99
2020-11-04 02:00:00 4.8 7 Norte 14 Norte 0 894.9 -- 99
2020-11-04 01:00:00 5.2 6 Norte 16 Noroeste 0 895.9 -- 99
2020-11-04 00:00:00 5.7 7 Noroeste 16 Norte 0 896.6 -- 97
2020-11-03 23:00:00 6.3 8 Noroeste 18 Norte 0 897.3 -- 94
2020-11-03 22:00:00 7.2 8 Norte 13 Norte 0 897.4 -- 90
2020-11-03 21:00:00 7.7 8 Norte 15 Norte 0 897.7 -- 90
2020-11-03 20:00:00 8 8 Norte 17 Norte 0 898 -- 89
2020-11-03 19:00:00 8.7 8 Norte 14 Norte 0 897.9 -- 90
2020-11-03 18:00:00 8.9 5 Noroeste 16 Noroeste 0 897.9 -- 94
2020-11-03 17:00:00 8.6 7 Norte 22 Norte 0 897.8 -- 95
2020-11-03 16:00:00 8.2 10 Norte 22 Norte 0 897.9 -- 98
2020-11-03 15:00:00 8.3 11 Norte 19 Norte 0 898 -- 98
2020-11-03 14:00:00 8.6 11 Norte 22 Norte 0.2 898.1 -- 97
2020-11-03 13:00:00 8.6 15 Norte 23 Norte 0 898.3 -- 95
2020-11-03 12:00:00 8.8 8 Norte 16 Noroeste 0 -- -- 97
2020-11-03 11:00:00 8.3 6 Noroeste 15 Norte 0.2 898.2 -- 97
2020-11-03 10:00:00 8.1 7 Norte 15 Norte 0 898 -- 97
2020-11-03 09:00:00 8.2 3 Noroeste 24 Noroeste 0 897.4 -- 96
2020-11-03 08:00:00 8.3 8 Noroeste 26 Noroeste 0 896.9 -- 96
2020-11-03 07:00:00 9.2 10 Noroeste 27 Noroeste 0 896.4 -- 96
2020-11-03 06:00:00 11.4 10 Noroeste 20 Noroeste 0 896.2 -- 92
2020-11-03 05:00:00 11.7 3 Oeste 5 Nordeste 0 895.9 -- 92
2020-11-03 04:00:00 11.9 0 Calma 4 Nordeste 0 896 -- 91
2020-11-03 03:00:00 11.9 0 Calma 4 Sur 0 896.3 -- 88
2020-11-03 02:00:00 11.7 4 Sur 6 Sur 0 896.2 -- 89
2020-11-03 01:00:00 11.3 0 Calma 3 Oeste 0 896.2 -- 91
2020-11-03 00:00:00 11.6 0 Calma 8 Sudeste 0 896.2 -- 89
2020-11-02 23:00:00 11.6 4 Sur 6 Sur 0 896.4 -- 89
2020-11-02 22:00:00 12.3 -- -- -- -- 0 896.5 -- 86
2020-11-02 21:00:00 13 0 Calma 6 Nordeste 0 896.5 -- 83
2020-11-02 20:00:00 13.6 3 Norte 11 Norte 0 896.4 -- 81
2020-11-02 19:00:00 13.8 5 Norte 9 Norte 0 895.9 -- 81
2020-11-02 18:00:00 14.2 3 Norte 9 Norte 0 895.4 -- 78
2020-11-02 17:00:00 14.6 5 Norte 10 Norte 0 895.1 -- 77
2020-11-02 16:00:00 15.1 5 Noroeste 10 Noroeste 0 895 -- 75
2020-11-02 15:00:00 15.4 6 Nordeste 12 Norte 0 895 -- 75
2020-11-02 14:00:00 16 3 Noroeste 13 Norte 0 895.6 -- 72
2020-11-02 13:00:00 15 3 Noroeste 11 Noroeste 0 896.4 -- 77
2020-11-02 12:00:00 13.6 6 Nordeste 11 Nordeste 0 897 -- 82
2020-11-02 11:00:00 12.6 5 Norte 11 Norte 0 897 -- 86
2020-11-02 10:00:00 11.9 6 Norte 11 Nordeste 0 896.8 -- 92
2020-11-02 09:00:00 11.3 4 Norte 8 Nordeste 0 896.3 -- 93
2020-11-02 08:00:00 10.9 5 Norte 9 Norte 0 895.8 -- 95
2020-11-02 07:00:00 11.1 4 Nordeste 8 Nordeste 0 895.6 -- 96
2020-11-02 06:00:00 10.6 4 Nordeste 7 Nordeste 0 895.7 -- 95
2020-11-02 05:00:00 10.4 2 Sudeste 5 Sur 0 895.5 -- 83
2020-11-02 04:00:00 10.5 2 Sur 4 Sur 0 895.5 -- 82
2020-11-02 03:00:00 10.4 0 Calma 6 Sur 0 895.7 -- 84
2020-11-02 02:00:00 9.9 2 Sudeste 7 Sudeste 0 895.9 -- 86
2020-11-02 01:00:00 9.2 2 Este 4 Sudeste 0 896.3 -- 88
2020-11-02 00:00:00 9.5 0 Calma 5 Sudeste 0 896.5 -- 84
2020-11-01 23:00:00 10.1 2 Este 5 Sudeste 0 896.9 -- 85
2020-11-01 22:00:00 11 0 Calma 5 Sudeste 0 896.6 -- 81
2020-11-01 21:00:00 11.9 0 Calma 5 Oeste 0 896.7 -- 77
2020-11-01 20:00:00 13.6 3 Este 9 Sudeste 0 896.6 -- 71
2020-11-01 19:00:00 15.5 2 Nordeste 9 Norte 0 896.4 -- 63
2020-11-01 18:00:00 17.1 6 Nordeste 15 Norte 0 896.4 -- 57
2020-11-01 17:00:00 18.9 7 Norte 17 Norte 0 896.4 -- 48
2020-11-01 16:00:00 20.2 8 Norte 14 Norte 0 896.4 -- 42
2020-11-01 15:00:00 20.6 2 Sur 10 Sur 0 896.6 -- 34
2020-11-01 14:00:00 18.5 5 Sudoeste 9 Sur 0 897 -- 43
2020-11-01 13:00:00 17.2 3 Sudoeste 8 Sur 0 897.8 -- 55
2020-11-01 12:00:00 15.6 4 Sudoeste 7 Sudoeste 0 898.3 -- 57
2020-11-01 11:00:00 13.2 2 Sudoeste 7 Sudoeste 0 898.4 -- 63
2020-11-01 10:00:00 10.7 3 Sur 6 Sur 0 898.5 -- 75
2020-11-01 09:00:00 6.7 3 Sur 9 Sudeste 0 897.9 -- 92
2020-11-01 08:00:00 5.4 2 Este 8 Sudeste 0 897.6 -- 94
2020-11-01 07:00:00 5.4 2 Este 6 Sudeste 0 897.5 -- 94
2020-11-01 06:00:00 5.8 2 Sur 9 Sur 0 897.5 -- 92
2020-11-01 05:00:00 6.5 2 Sur 5 Sur 0 897.7 -- 91
2020-11-01 04:00:00 7.2 2 Sudoeste 8 Sudeste 0 897.4 -- 91
2020-11-01 03:00:00 7 5 Sudeste 9 Sudeste 0 898 -- 93
2020-11-01 02:00:00 6.7 0 Calma 3 Este 0 898.3 -- 92
2020-11-01 01:00:00 7.5 3 Sudeste 8 Sudeste 0 898.6 -- 90
2020-11-01 00:00:00 7.9 0 Calma 4 Sur 0 898.7 -- 89
2020-10-31 23:00:00 8.7 0 Calma 8 Sur 0 898.5 -- 85
2020-10-31 22:00:00 9.6 2 Nordeste 5 Sudeste 0 898.3 -- 83
2020-10-31 21:00:00 10.5 0 Calma 8 Sur 0 898 -- 79
2020-10-31 20:00:00 12.3 3 Oeste 6 Nordeste 0 898.3 -- 71
2020-10-31 19:00:00 14.9 3 Norte 8 Norte 0 898 -- 60
2020-10-31 18:00:00 17 5 Nordeste 13 Nordeste 0 897.5 -- 53
2020-10-31 17:00:00 18.2 8 Nordeste 15 Norte 0 896.9 -- 49
2020-10-31 16:00:00 18.5 8 Norte 21 Norte 0 897.1 -- 49
2020-10-31 15:00:00 18.3 11 Norte 17 Norte 0 897.2 -- 51
2020-10-31 14:00:00 19.8 6 Norte 14 Norte 0 897.5 -- 47
2020-10-31 13:00:00 18.9 5 Noroeste 12 Noroeste 0 898.1 -- 46
2020-10-31 12:00:00 17.2 2 Noroeste 11 Este 0 898.5 -- 49
2020-10-31 11:00:00 14.1 4 Sur 7 Sur 0 898.8 -- 58
2020-10-31 10:00:00 9.5 6 Sur 12 Sur 0 899.1 -- 74
2020-10-31 09:00:00 5.7 2 Sudeste 5 Este 0 898.8 -- 93
2020-10-31 08:00:00 5 3 Sur 9 Sudeste 0 898 -- 93
2020-10-31 07:00:00 4.9 4 Sudeste 8 Sur 0 897.9 -- 91
2020-10-31 06:00:00 5 3 Sudeste 6 Sur 0 897.8 -- 93
2020-10-31 05:00:00 5.5 3 Sur 7 Sur 0 897.6 -- 93
2020-10-31 04:00:00 6.2 2 Noroeste 4 Sudeste 0 897.5 -- 91
2020-10-31 03:00:00 7 4 Sur 12 Sur 0 897.7 -- 90
2020-10-31 02:00:00 7 0 Calma 9 Sur 0 897.9 -- 87
2020-10-31 01:00:00 8.5 3 Sudeste 10 Sur 0 897.8 -- 82
2020-10-31 00:00:00 10.5 6 Sur 14 Sur 0 897.8 -- 82
2020-10-30 23:00:00 10 5 Sur 8 Sur 0 898.1 -- 85
2020-10-30 22:00:00 11.3 5 Sudeste 18 Sudeste 0 898 -- 79
2020-10-30 21:00:00 12.3 9 Sudeste 14 Sudeste 0 897.7 -- 75
2020-10-30 20:00:00 12.5 4 Sudeste 12 Sudeste 0 897.8 -- 75
2020-10-30 19:00:00 14.8 7 Sudeste 12 Sudeste 0 897.5 -- 65
2020-10-30 18:00:00 17.7 3 Este 10 Nordeste 0 897.3 -- 49
2020-10-30 17:00:00 18.9 4 Nordeste 14 Nordeste 0 897.2 -- 48
2020-10-30 16:00:00 19.5 4 Norte 12 Noroeste 0 897.4 -- 46
2020-10-30 15:00:00 19.3 4 Nordeste 13 Noroeste 0 897.7 -- 41
2020-10-30 14:00:00 18.8 5 Noroeste 13 Oeste 0 898 -- 38
2020-10-30 13:00:00 17.7 7 Oeste 13 Oeste 0 898.4 -- 48
2020-10-30 12:00:00 15.7 3 Sur 7 Sur 0 898.9 -- 55
2020-10-30 11:00:00 11.8 4 Sudoeste 8 Sudoeste 0 899 -- 62
2020-10-30 10:00:00 8.8 3 Sur 9 Sur 0 899.1 -- 75
2020-10-30 09:00:00 4.6 3 Sur 6 Sur 0 898.7 -- 95
2020-10-30 08:00:00 3.4 3 Sudeste 8 Sur 0 898.3 -- 96
2020-10-30 07:00:00 3.3 3 Sudeste 5 Sur 0 898.2 -- 96
2020-10-30 06:00:00 3.3 3 Sur 6 Sur 0 898.2 -- 96
2020-10-30 05:00:00 3.5 3 Sur 7 Sudoeste 0 898.2 -- 94
2020-10-30 04:00:00 4 4 Sur 7 Sudeste 0 898.2 -- 94
2020-10-30 03:00:00 4.3 2 Sudeste 6 Sur 0 898.2 -- 93
2020-10-30 02:00:00 5.3 2 Sudoeste 5 Sur 0 898.2 -- 90
2020-10-30 01:00:00 6.7 3 Sur 11 Sudeste 0 898.1 -- 91
2020-10-30 00:00:00 6.9 2 Sudeste 8 Sudeste 0 898.2 -- 85
2020-10-29 23:00:00 8.6 6 Sudeste 10 Sudeste 0 898.2 -- 85
2020-10-29 22:00:00 9.5 6 Sur 18 Sudeste 0 898.2 -- 82
2020-10-29 21:00:00 9.8 6 Sudeste 16 Sudeste 0 897.9 -- 82
2020-10-29 20:00:00 10.4 8 Sudeste 16 Sudeste 0 898.1 -- 79
2020-10-29 19:00:00 11.7 9 Sudeste 16 Sudeste 0 897.8 -- 74
2020-10-29 18:00:00 14.7 7 Sudeste 14 Sudeste 0 897.4 -- 63
2020-10-29 17:00:00 17.4 5 Sudeste 10 Sudeste 0 897.4 -- 50
2020-10-29 16:00:00 17.4 3 Sudeste 12 Sudeste 0 897.3 -- 50
2020-10-29 15:00:00 16.1 7 Sudeste 15 Sur 0 897.4 -- 49
2020-10-29 14:00:00 15.2 8 Sudeste 16 Sur 0 897.7 -- 55
2020-10-29 13:00:00 13.2 9 Sudeste 27 Sudeste 0 898.3 -- 65
2020-10-29 12:00:00 11.6 16 Sudeste 36 Sudeste 0 898.3 -- 74
2020-10-29 11:00:00 10.9 17 Sur 35 Sur 0 898.1 -- 79
2020-10-29 10:00:00 8.8 12 Sur 21 Sur 0 898 -- 92
2020-10-29 09:00:00 6.5 6 Sudoeste 14 Sudoeste 0 898 -- 97
2020-10-29 08:00:00 6.3 7 Sudoeste 14 Sur 0 897.5 -- 96
2020-10-29 07:00:00 6.9 4 Sur 7 Sur 0 897.3 -- 93
2020-10-29 06:00:00 6.9 3 Sudoeste 10 Sur 0 897 -- 91
2020-10-29 05:00:00 7.4 0 Calma 6 Sudoeste 0 896.7 -- 92
2020-10-29 04:00:00 7.1 4 Sur 9 Sur 0 896.4 -- 92
2020-10-29 03:00:00 7 0 Calma 5 Oeste 0 896.8 -- 94
2020-10-29 02:00:00 6.3 0 Calma 6 Sur 0 896.8 -- 95
2020-10-29 01:00:00 6 0 Calma 7 Sudeste 0 896.9 -- 95
2020-10-29 00:00:00 6.6 3 Este 5 Sudeste 0 896.7 -- 92
2020-10-28 23:00:00 7.4 2 Oeste 6 Sudeste 0 896.4 -- 88
2020-10-28 22:00:00 8.7 5 Sudeste 8 Sudeste 0 896.4 -- 86
2020-10-28 21:00:00 9.5 0 Calma 6 Este 0 896.3 -- 83
2020-10-28 20:00:00 11.3 3 Noroeste 18 Noroeste 0 896.2 -- 77
2020-10-28 19:00:00 12.5 9 Noroeste 19 Nordeste 0 895.6 -- 74
2020-10-28 18:00:00 13.6 12 Norte 27 Norte 0 895 -- 69
2020-10-28 17:00:00 15.7 10 Noroeste 21 Noroeste 0 894.4 -- 68
2020-10-28 16:00:00 17 8 Noroeste 22 Noroeste 0 893.7 -- 58
2020-10-28 15:00:00 17.6 11 Noroeste 22 Noroeste 0 893.8 -- 55
2020-10-28 14:00:00 16.9 15 Oeste 25 Oeste 0 894 -- 59
2020-10-28 13:00:00 14.8 0 Calma 10 Noroeste 0 894.4 -- 84
2020-10-28 12:00:00 14.3 5 Noroeste 13 Oeste 0 894.6 -- 83
2020-10-28 11:00:00 14.2 4 Sudoeste 12 Oeste 0 894.1 -- 82
2020-10-28 10:00:00 13 5 Sur 9 Sudoeste 0 893.7 -- 86
2020-10-28 09:00:00 11.6 3 Sur 9 Sudeste 0 893.3 -- 93
2020-10-28 08:00:00 10.6 5 Sudeste 8 Sudeste 0 892.6 -- 94
2020-10-28 07:00:00 10.3 0 Calma 8 Sudeste 0 892.4 -- 95
2020-10-28 06:00:00 9.9 5 Este 12 Sudeste 0 891.9 -- 94
2020-10-28 05:00:00 10 0 Calma 8 Sur 0.2 891.9 -- 93
2020-10-28 04:00:00 9.7 3 Sudoeste 8 Sur 0 891.6 -- 90
2020-10-28 03:00:00 9.8 5 Sur 9 Sudeste 0 891.7 -- 89
2020-10-28 02:00:00 9.1 3 Sur 10 Sur 0 891.9 -- 89
2020-10-28 01:00:00 10 4 Sur 9 Sur 0 892 -- 84
2020-10-28 00:00:00 9.6 4 Sudeste 10 Sudeste 0 892.3 -- 84
2020-10-27 23:00:00 9.2 6 Sudeste 10 Sudeste 0 892.4 -- 84
2020-10-27 22:00:00 9.3 4 Sudeste 6 Sudeste 0 892.2 -- 84
2020-10-27 21:00:00 9.5 3 Nordeste 6 Noroeste 0 891.7 -- 83
2020-10-27 20:00:00 9.8 4 Norte 17 Norte 0 891.8 -- 77
2020-10-27 19:00:00 10 10 Norte 19 Norte 0 891.5 -- 77
2020-10-27 18:00:00 10.5 13 Norte 24 Norte 0 891.1 -- 72
2020-10-27 17:00:00 11.5 14 Norte 24 Norte 0 891.1 -- 67
2020-10-27 16:00:00 12.8 8 Noroeste 19 Noroeste 0 890.8 -- 62
2020-10-27 15:00:00 11.9 10 Noroeste 32 Noroeste 0 890.9 -- 63
2020-10-27 14:00:00 12.4 11 Noroeste 25 Noroeste 0 891.4 -- 61
2020-10-27 13:00:00 11.6 10 Noroeste 26 Noroeste 0 891.7 -- 63
2020-10-27 12:00:00 10.9 -- -- -- -- -- 892 -- 66
2020-10-27 11:00:00 9.1 8 Oeste 13 Sudoeste 0 891.9 -- 71
2020-10-27 10:00:00 5.9 8 Sudoeste 13 Sudoeste 0 892 -- 80
2020-10-27 09:00:00 4.2 4 Sudoeste 13 Sudoeste 0 891.9 -- 85
2020-10-27 08:00:00 2.1 4 Sur 8 Oeste 0 891.3 -- 92
2020-10-27 07:00:00 2 3 Sudoeste 7 Norte 0 891.4 -- 92
2020-10-27 06:00:00 2.3 3 Nordeste 8 Sur 0 891.3 -- 91
2020-10-27 05:00:00 2.8 2 Sudeste 8 Oeste 0 891.1 -- 90
2020-10-27 04:00:00 2.7 5 Oeste 12 Oeste 0 891.3 -- 92
2020-10-27 03:00:00 2.9 4 Sur 12 Noroeste 0 891.7 -- 87
2020-10-27 02:00:00 3.1 6 Oeste 12 Oeste 0 891.9 -- 88
2020-10-27 01:00:00 2.5 3 Sur 8 Sudoeste 0 892.2 -- 87
2020-10-27 00:00:00 3.2 2 Noroeste 8 Oeste 0 892.4 -- 86